Time;durP1;ratioP1;P1;durP2;ratioP2;P2;SDS_P1;SDS_P2;PMS_P1;PMS_P2;Temp;Humidity;BMP_temperature;BMP_pressure;BME280_temperature;BME280_humidity;BME280_pressure;Samples;Min_cycle;Max_cycle;Signal;HPM_P1;HPM_P2
2022/08/24 00:00:36;;;;;;;8.30;1.77;;;22.90;73.00;;;;;;5124198;27;20192;-67
2022/08/24 00:03:03;;;;;;;2.73;1.10;;;22.80;73.40;;;;;;5126538;27;20683;-67
2022/08/24 00:05:30;;;;;;;2.50;1.20;;;22.80;73.50;;;;;;5103269;28;20208;-67
2022/08/24 00:07:57;;;;;;;9.20;2.00;;;22.80;73.60;;;;;;5115703;27;20204;-67
2022/08/24 00:10:25;;;;;;;1.00;0.90;;;22.80;73.90;;;;;;5116428;27;20207;-67
2022/08/24 00:12:52;;;;;;;2.10;1.07;;;22.80;74.00;;;;;;5106308;27;20217;-67
2022/08/24 00:15:20;;;;;;;3.00;1.43;;;22.70;74.00;;;;;;5104874;28;20649;-67
2022/08/24 00:17:47;;;;;;;4.33;1.27;;;22.70;74.10;;;;;;5125672;27;20234;-67
2022/08/24 00:20:15;;;;;;;1.07;1.00;;;22.70;74.10;;;;;;5120300;27;20203;-67
2022/08/24 00:22:42;;;;;;;1.37;1.13;;;22.70;74.00;;;;;;5120825;27;20198;-67
2022/08/24 00:25:11;;;;;;;1.17;1.10;;;22.70;73.90;;;;;;5123120;27;20275;-67
2022/08/24 00:27:40;;;;;;;1.60;1.30;;;22.60;74.10;;;;;;5109369;27;20284;-67
2022/08/24 00:30:10;;;;;;;2.13;1.20;;;22.60;74.30;;;;;;5108475;27;20204;-67
2022/08/24 00:32:37;;;;;;;1.83;1.57;;;22.50;74.40;;;;;;5104882;27;20188;-67
2022/08/24 00:35:06;;;;;;;2.67;1.20;;;22.50;74.60;;;;;;5108241;27;20203;-67
2022/08/24 00:37:34;;;;;;;3.70;1.20;;;22.50;74.80;;;;;;5103455;27;20202;-67
2022/08/24 00:40:07;;;;;;;1.80;1.10;;;22.50;74.90;;;;;;5118625;27;20617;-67
2022/08/24 00:42:34;;;;;;;1.33;1.17;;;22.40;74.90;;;;;;5087247;27;20251;-67
2022/08/24 00:45:01;;;;;;;1.30;1.10;;;22.40;74.80;;;;;;5101538;27;20577;-67
2022/08/24 00:47:36;;;;;;;2.20;1.47;;;22.40;75.00;;;;;;5113041;27;20195;-67
2022/08/24 00:50:08;;;;;;;1.57;1.10;;;22.30;75.10;;;;;;5099040;28;20661;-67
2022/08/24 00:52:42;;;;;;;2.37;1.40;;;22.30;75.30;;;;;;5097542;28;20216;-67
2022/08/24 00:55:14;;;;;;;1.67;1.17;;;22.20;75.40;;;;;;5109985;27;20216;-67
2022/08/24 00:57:45;;;;;;;1.90;1.43;;;22.20;75.40;;;;;;5110518;27;20317;-67
2022/08/24 01:00:17;;;;;;;2.00;1.53;;;22.20;75.60;;;;;;5089484;27;20213;-67
2022/08/24 01:02:50;;;;;;;1.80;1.40;;;22.20;75.60;;;;;;5120461;27;20533;-67
2022/08/24 01:05:18;;;;;;;4.70;1.70;;;22.10;75.70;;;;;;5100464;28;20197;-67
2022/08/24 01:07:49;;;;;;;2.87;1.87;;;22.10;75.90;;;;;;5086270;27;20196;-67
2022/08/24 01:10:26;;;;;;;3.03;1.40;;;22.10;76.00;;;;;;5118556;27;20265;-67
2022/08/24 01:12:56;;;;;;;3.00;1.47;;;22.10;76.20;;;;;;5075365;27;20204;-67
2022/08/24 01:15:37;;;;;;;3.37;1.33;;;22.10;76.30;;;;;;5107488;27;20197;-67
2022/08/24 01:21:41;;;;;;;2.07;1.30;;;22.10;76.50;;;;;;5079337;27;20212;-67
2022/08/24 01:24:12;;;;;;;3.43;1.37;;;22.10;76.80;;;;;;5103643;27;20204;-67
2022/08/24 01:26:44;;;;;;;1.50;1.40;;;22.00;77.10;;;;;;5090106;27;20244;-67
2022/08/24 01:29:17;;;;;;;2.63;1.70;;;22.10;77.30;;;;;;5123226;27;20255;-67
2022/08/24 01:31:46;;;;;;;3.20;1.57;;;22.00;77.40;;;;;;5072227;27;20207;-67
2022/08/24 01:34:13;;;;;;;1.60;1.50;;;22.00;77.40;;;;;;5091075;28;20209;-66
2022/08/24 01:36:54;;;;;;;2.87;1.60;;;22.00;77.60;;;;;;5091267;28;20274;-67
2022/08/24 01:39:31;;;;;;;1.93;1.47;;;21.90;77.70;;;;;;5099993;28;20200;-67
2022/08/24 01:42:00;;;;;;;2.07;1.43;;;21.90;77.80;;;;;;5091825;27;20215;-66
2022/08/24 01:44:30;;;;;;;4.20;1.70;;;21.80;77.80;;;;;;5083587;27;20219;-67
2022/08/24 01:46:57;;;;;;;2.40;2.20;;;21.80;78.00;;;;;;5115735;27;20239;-67
2022/08/24 01:49:28;;;;;;;5.10;2.13;;;21.90;78.30;;;;;;5100692;28;20502;-67
2022/08/24 01:51:58;;;;;;;2.73;1.90;;;21.80;78.20;;;;;;5084387;27;20208;-67
2022/08/24 01:54:25;;;;;;;1.80;1.70;;;21.80;78.20;;;;;;5099700;27;20236;-67
2022/08/24 01:56:52;;;;;;;1.60;1.40;;;21.80;78.30;;;;;;5074087;27;20247;-67
2022/08/24 01:59:20;;;;;;;1.53;1.43;;;21.80;78.30;;;;;;5108203;27;20200;-67
2022/08/24 02:01:53;;;;;;;4.57;1.70;;;21.70;78.30;;;;;;5102454;27;20628;-67
2022/08/24 02:04:21;;;;;;;2.13;1.90;;;21.70;78.40;;;;;;5103249;27;20203;-67
2022/08/24 02:06:49;;;;;;;4.63;2.60;;;21.70;78.50;;;;;;5103606;27;20208;-67
2022/08/24 02:09:16;;;;;;;2.33;1.87;;;21.70;78.60;;;;;;5087467;27;20201;-67
2022/08/24 02:11:43;;;;;;;3.60;1.77;;;21.70;78.60;;;;;;5076682;27;20203;-67
2022/08/24 02:14:12;;;;;;;7.33;2.47;;;21.60;78.60;;;;;;5085155;27;20207;-67
2022/08/24 02:16:41;;;;;;;2.70;1.90;;;21.60;78.80;;;;;;5100483;28;20251;-67
2022/08/24 02:19:08;;;;;;;4.27;2.03;;;21.60;79.00;;;;;;5088392;28;20205;-67
2022/08/24 02:21:37;;;;;;;2.90;1.80;;;21.60;79.10;;;;;;5089302;27;20196;-67
2022/08/24 02:24:06;;;;;;;2.13;1.93;;;21.60;79.20;;;;;;5097260;28;20219;-67
2022/08/24 02:26:33;;;;;;;4.60;2.80;;;21.60;79.60;;;;;;5100331;27;20203;-67
2022/08/24 02:29:01;;;;;;;3.00;2.70;;;21.60;79.70;;;;;;5092303;27;20205;-67
2022/08/24 02:31:30;;;;;;;3.13;2.90;;;21.60;79.90;;;;;;5086164;28;20544;-67
2022/08/24 02:33:57;;;;;;;4.97;2.93;;;21.60;80.10;;;;;;5100038;28;20235;-68
2022/08/24 02:36:24;;;;;;;4.90;2.73;;;21.60;80.00;;;;;;5100099;27;20224;-67
2022/08/24 02:38:56;;;;;;;5.67;2.90;;;21.60;80.00;;;;;;5086737;27;20211;-67
2022/08/24 02:41:24;;;;;;;4.83;2.80;;;21.60;80.00;;;;;;5098270;28;20258;-67
2022/08/24 02:43:53;;;;;;;2.30;2.00;;;21.60;80.00;;;;;;5085398;28;20235;-67
2022/08/24 02:46:24;;;;;;;3.83;2.00;;;21.60;80.20;;;;;;5110817;27;20283;-67
2022/08/24 02:48:52;;;;;;;2.57;2.13;;;21.60;80.20;;;;;;5074336;28;20208;-67
2022/08/24 02:51:39;;;;;;;3.00;2.40;;;21.60;80.20;;;;;;5087797;28;20205;-67
2022/08/24 02:54:18;;;;;;;5.20;2.50;;;21.50;80.10;;;;;;5101225;28;20218;-67
2022/08/24 02:56:48;;;;;;;4.03;2.73;;;21.50;80.20;;;;;;5103587;28;20347;-67
2022/08/24 02:59:16;;;;;;;4.23;2.90;;;21.50;80.30;;;;;;5105595;28;20196;-67
2022/08/24 03:01:44;;;;;;;4.70;2.60;;;21.50;80.50;;;;;;5104397;28;20215;-67
2022/08/24 03:04:12;;;;;;;2.93;2.43;;;21.50;80.50;;;;;;5092203;27;20232;-67
2022/08/24 03:06:41;;;;;;;4.70;2.70;;;21.40;80.50;;;;;;5115318;27;20212;-67
2022/08/24 03:09:08;;;;;;;5.90;2.77;;;21.40;80.50;;;;;;5124567;27;20207;-67
2022/08/24 03:11:35;;;;;;;4.57;3.10;;;21.40;80.50;;;;;;5091403;27;20513;-67
2022/08/24 03:14:02;;;;;;;3.57;3.03;;;21.40;80.50;;;;;;5104135;27;20700;-67
2022/08/24 03:16:30;;;;;;;8.40;2.90;;;21.40;80.60;;;;;;5084740;28;20227;-67
2022/08/24 03:18:58;;;;;;;3.17;2.80;;;21.40;80.60;;;;;;5099040;27;20711;-67
2022/08/24 03:21:27;;;;;;;4.60;3.20;;;21.40;80.60;;;;;;5087018;27;20288;-67
2022/08/24 03:23:55;;;;;;;5.70;3.00;;;21.40;80.70;;;;;;5083631;27;20254;-67
2022/08/24 03:26:23;;;;;;;5.33;3.20;;;21.30;80.80;;;;;;5097900;28;20212;-67
2022/08/24 03:28:51;;;;;;;6.30;3.37;;;21.30;80.80;;;;;;5083732;27;20672;-67
2022/08/24 03:31:19;;;;;;;3.43;3.13;;;21.30;80.90;;;;;;5099578;27;20299;-67
2022/08/24 03:33:49;;;;;;;5.17;2.70;;;21.30;81.00;;;;;;5106821;27;20205;-67
2022/08/24 03:36:16;;;;;;;4.97;2.77;;;21.30;81.10;;;;;;5126817;27;20278;-67
2022/08/24 03:38:44;;;;;;;5.80;2.67;;;21.30;81.10;;;;;;5106078;27;20212;-67
2022/08/24 03:41:11;;;;;;;3.50;2.53;;;21.30;81.20;;;;;;5089768;27;20202;-67
2022/08/24 03:43:45;;;;;;;6.17;2.80;;;21.30;81.20;;;;;;5105525;27;20210;-67
2022/08/24 03:46:24;;;;;;;3.30;2.93;;;21.30;81.10;;;;;;5099728;27;20203;-67
2022/08/24 03:48:56;;;;;;;5.00;2.67;;;21.30;81.20;;;;;;5074837;27;20244;-67
2022/08/24 03:51:26;;;;;;;4.63;3.03;;;21.20;81.20;;;;;;5109207;27;20232;-68
2022/08/24 03:53:54;;;;;;;3.40;3.10;;;21.20;81.40;;;;;;5087672;27;20231;-67
2022/08/24 03:56:24;;;;;;;3.20;2.70;;;21.20;81.50;;;;;;5108173;27;20549;-67
2022/08/24 03:58:52;;;;;;;3.47;2.93;;;21.20;81.50;;;;;;5105468;27;20231;-67
2022/08/24 04:01:19;;;;;;;4.03;2.70;;;21.20;81.60;;;;;;5109253;27;20321;-67
2022/08/24 04:03:49;;;;;;;4.17;2.73;;;21.20;81.60;;;;;;5088759;27;20208;-67
2022/08/24 04:06:18;;;;;;;7.30;3.00;;;21.20;81.60;;;;;;5102831;27;20295;-67
2022/08/24 04:08:46;;;;;;;10.33;3.30;;;21.20;81.80;;;;;;5097751;27;20197;-67
2022/08/24 04:11:16;;;;;;;6.77;3.00;;;21.20;82.50;;;;;;5104918;27;20601;-67
2022/08/24 04:13:45;;;;;;;3.43;2.77;;;21.20;82.00;;;;;;5098348;27;20296;-67
2022/08/24 04:16:16;;;;;;;3.23;2.70;;;21.20;82.10;;;;;;5103234;27;20235;-67
2022/08/24 04:18:44;;;;;;;4.87;2.60;;;21.20;82.20;;;;;;5076409;28;20236;-67
2022/08/24 04:21:25;;;;;;;9.53;2.80;;;21.20;82.20;;;;;;5081345;28;20206;-67
2022/08/24 04:23:53;;;;;;;10.30;3.33;;;21.10;82.00;;;;;;5052843;28;20282;-67
2022/08/24 04:26:25;;;;;;;9.23;2.90;;;21.10;81.90;;;;;;5082186;28;20213;-67
2022/08/24 04:29:15;;;;;;;2.87;2.53;;;21.10;81.80;;;;;;5065244;28;20213;-67
2022/08/24 04:31:47;;;;;;;3.80;2.47;;;21.00;81.90;;;;;;5081124;28;20261;-67
2022/08/24 04:34:17;;;;;;;10.13;2.80;;;21.00;82.10;;;;;;5079701;28;20227;-67
2022/08/24 04:36:45;;;;;;;6.13;3.00;;;21.00;82.20;;;;;;5066851;28;20235;-67
2022/08/24 04:39:13;;;;;;;7.80;3.20;;;21.00;82.30;;;;;;5077711;28;20212;-67
2022/08/24 04:41:46;;;;;;;10.17;3.00;;;21.00;82.40;;;;;;5068916;28;20273;-67
2022/08/24 04:44:17;;;;;;;5.27;3.17;;;21.00;82.20;;;;;;5083109;28;20233;-67
2022/08/24 04:46:45;;;;;;;4.33;2.63;;;21.10;82.20;;;;;;5071971;28;20209;-67
2022/08/24 04:49:12;;;;;;;8.70;3.03;;;21.10;82.10;;;;;;5073001;28;20194;-67
2022/08/24 04:51:39;;;;;;;8.53;2.93;;;21.10;82.10;;;;;;5074617;28;20214;-67
2022/08/24 04:54:07;;;;;;;4.30;2.57;;;21.10;82.20;;;;;;5073732;28;20240;-67
2022/08/24 04:56:35;;;;;;;10.90;3.10;;;21.10;82.30;;;;;;5072434;28;20221;-67
2022/08/24 04:59:04;;;;;;;9.37;2.63;;;21.10;82.40;;;;;;5076133;28;20194;-67
2022/08/24 05:01:32;;;;;;;6.30;2.93;;;21.20;82.40;;;;;;5076261;28;20205;-67
2022/08/24 05:04:03;;;;;;;6.23;2.67;;;21.20;82.30;;;;;;5101900;28;20619;-67
2022/08/24 05:06:31;;;;;;;8.63;2.37;;;21.20;82.10;;;;;;5068618;28;20542;-67
2022/08/24 05:08:59;;;;;;;5.10;2.73;;;21.20;82.10;;;;;;5064495;28;20619;-67
2022/08/24 05:11:27;;;;;;;2.90;2.47;;;21.30;82.10;;;;;;5089273;28;20214;-67
2022/08/24 05:13:56;;;;;;;4.93;2.30;;;21.40;82.20;;;;;;5075752;28;20217;-67
2022/08/24 05:16:25;;;;;;;5.57;2.47;;;21.40;82.10;;;;;;5080181;28;20199;-67
2022/08/24 05:18:53;;;;;;;2.53;2.13;;;21.40;81.90;;;;;;5097186;27;20209;-67
2022/08/24 05:21:22;;;;;;;5.27;2.53;;;21.50;81.80;;;;;;5100508;27;20192;-67
2022/08/24 05:23:51;;;;;;;4.90;2.50;;;21.60;81.80;;;;;;5113431;27;20534;-67
2022/08/24 05:26:23;;;;;;;6.13;2.67;;;21.60;81.50;;;;;;5097575;27;20295;-67
2022/08/24 05:29:01;;;;;;;4.03;2.57;;;21.70;81.30;;;;;;5095482;27;20200;-67
2022/08/24 05:31:43;;;;;;;3.77;2.47;;;21.80;81.00;;;;;;5086454;28;20232;-68
2022/08/24 05:34:12;;;;;;;3.80;2.83;;;21.90;80.60;;;;;;5103690;27;20196;-67
2022/08/24 05:36:41;;;;;;;3.17;2.47;;;22.00;80.20;;;;;;5105349;27;20228;-67
2022/08/24 05:39:16;;;;;;;4.03;2.40;;;22.10;79.90;;;;;;5096901;28;20218;-67
2022/08/24 05:41:50;;;;;;;4.40;2.40;;;22.30;79.70;;;;;;5080846;27;20266;-67
2022/08/24 05:44:23;;;;;;;2.33;2.13;;;22.40;79.50;;;;;;5094328;27;20213;-67
2022/08/24 05:46:58;;;;;;;3.80;2.63;;;22.50;79.20;;;;;;5106078;28;20211;-67
2022/08/24 05:49:26;;;;;;;5.20;2.83;;;22.60;78.90;;;;;;5104206;27;20629;-67
2022/08/24 05:51:53;;;;;;;4.23;3.30;;;22.70;78.40;;;;;;5105093;27;20268;-67
2022/08/24 05:54:22;;;;;;;5.43;3.33;;;22.90;78.10;;;;;;5111099;27;20261;-67
2022/08/24 05:57:03;;;;;;;3.97;3.00;;;23.00;77.70;;;;;;5106820;27;20625;-67
2022/08/24 05:59:37;;;;;;;4.77;3.57;;;23.10;77.30;;;;;;5097455;27;20212;-67
2022/08/24 06:02:12;;;;;;;14.77;3.87;;;23.20;76.70;;;;;;5104861;27;20283;-67
2022/08/24 06:04:40;;;;;;;5.00;3.53;;;23.30;76.40;;;;;;5108992;27;20204;-67
2022/08/24 06:07:10;;;;;;;7.67;3.80;;;23.50;76.30;;;;;;5102948;28;20203;-67
2022/08/24 06:09:41;;;;;;;14.57;3.93;;;23.60;76.00;;;;;;5102276;27;20203;-68
2022/08/24 06:12:13;;;;;;;4.80;3.77;;;23.70;75.70;;;;;;5098007;28;20209;-66
2022/08/24 06:14:46;;;;;;;6.20;4.27;;;23.90;74.90;;;;;;5102544;27;20200;-67
2022/08/24 06:17:16;;;;;;;10.57;4.80;;;24.00;73.70;;;;;;5093826;28;20240;-67
2022/08/24 06:19:44;;;;;;;10.53;4.97;;;24.20;72.90;;;;;;5088752;28;20219;-67
2022/08/24 06:22:11;;;;;;;7.13;4.73;;;24.40;72.50;;;;;;5097358;28;20212;-67
2022/08/24 06:27:27;;;;;;;5.37;4.87;;;24.80;70.50;;;;;;5081400;28;20239;-67
2022/08/24 06:29:59;;;;;;;8.23;4.57;;;24.90;69.40;;;;;;5084089;27;20274;-67
2022/08/24 06:32:52;;;;;;;4.47;4.07;;;25.00;69.20;;;;;;5107133;27;20218;-67
2022/08/24 06:35:27;;;;;;;4.93;4.30;;;25.10;68.70;;;;;;5086635;28;20214;-67
2022/08/24 06:37:56;;;;;;;4.20;3.80;;;25.20;68.60;;;;;;5104261;27;20270;-67
2022/08/24 06:40:24;;;;;;;6.30;4.03;;;25.30;68.80;;;;;;5106963;27;20276;-67
2022/08/24 06:42:53;;;;;;;5.97;3.80;;;25.40;68.80;;;;;;5100971;27;20208;-67
2022/08/24 06:45:36;;;;;;;4.70;3.90;;;25.40;68.80;;;;;;5083448;28;20670;-67
2022/08/24 06:48:04;;;;;;;6.30;3.43;;;25.60;68.70;;;;;;5088783;28;20218;-67
2022/08/24 06:50:32;;;;;;;4.00;3.70;;;25.70;67.70;;;;;;5100128;28;20221;-67
2022/08/24 06:53:00;;;;;;;3.03;2.40;;;25.80;67.10;;;;;;5101460;28;20633;-67
2022/08/24 06:55:29;;;;;;;2.53;2.13;;;25.90;66.20;;;;;;5084233;28;20213;-67
2022/08/24 06:57:56;;;;;;;3.60;1.93;;;26.00;65.50;;;;;;5087711;28;20647;-67
2022/08/24 07:00:24;;;;;;;2.67;2.20;;;26.10;64.90;;;;;;5099705;28;20211;-67
2022/08/24 07:02:51;;;;;;;3.63;1.90;;;26.20;64.00;;;;;;5104986;28;20321;-67
2022/08/24 07:05:18;;;;;;;3.80;2.30;;;26.20;63.80;;;;;;5098210;28;20209;-67
2022/08/24 07:08:09;;;;;;;3.77;1.63;;;26.30;64.20;;;;;;5079010;28;20224;-68
2022/08/24 07:10:36;;;;;;;5.07;2.10;;;26.40;64.20;;;;;;5099695;28;20230;-67
2022/08/24 07:13:03;;;;;;;1.97;1.70;;;26.60;63.10;;;;;;5098098;28;20245;-67
2022/08/24 07:15:33;;;;;;;4.47;2.10;;;26.70;62.90;;;;;;5102469;28;20204;-67
2022/08/24 07:18:13;;;;;;;2.37;1.83;;;26.70;62.60;;;;;;5092475;28;20241;-67
2022/08/24 07:20:45;;;;;;;2.60;1.97;;;26.80;62.60;;;;;;5105035;28;21032;-67
2022/08/24 07:23:18;;;;;;;2.80;2.20;;;26.90;62.00;;;;;;5102365;28;20198;-67
2022/08/24 07:25:46;;;;;;;3.87;2.20;;;26.90;62.10;;;;;;5080255;28;20212;-67
2022/08/24 07:28:19;;;;;;;5.00;2.00;;;27.00;62.60;;;;;;5095857;28;20214;-67
2022/08/24 07:30:59;;;;;;;3.30;2.00;;;27.10;61.80;;;;;;5083975;28;20205;-67
2022/08/24 07:33:29;;;;;;;2.50;1.63;;;27.20;62.10;;;;;;5099158;28;20215;-67
2022/08/24 07:35:56;;;;;;;1.97;1.57;;;27.20;62.00;;;;;;5101486;28;20663;-67
2022/08/24 07:38:23;;;;;;;7.33;1.67;;;27.30;62.60;;;;;;5094986;28;20234;-67
2022/08/24 07:40:51;;;;;;;2.83;1.90;;;27.40;61.80;;;;;;5104410;28;20213;-67
2022/08/24 07:43:40;;;;;;;5.90;1.73;;;27.50;61.60;;;;;;5101416;28;20240;-67
2022/08/24 07:46:09;;;;;;;2.97;1.70;;;27.50;61.90;;;;;;5094766;28;20221;-67
2022/08/24 07:48:36;;;;;;;2.83;1.73;;;27.60;61.70;;;;;;5110320;27;20212;-67
2022/08/24 07:51:12;;;;;;;6.70;1.93;;;27.80;61.70;;;;;;5090597;28;20235;-67
2022/08/24 07:53:43;;;;;;;3.63;1.80;;;27.90;60.50;;;;;;5086809;27;20301;-67
2022/08/24 07:56:27;;;;;;;2.97;1.80;;;28.00;61.00;;;;;;5097706;27;20211;-67
2022/08/24 07:58:56;;;;;;;3.10;1.70;;;28.10;60.00;;;;;;5102826;27;20283;-67
2022/08/24 08:01:23;;;;;;;1.60;1.40;;;28.20;60.90;;;;;;5104282;27;20207;-67
2022/08/24 08:03:52;;;;;;;4.90;1.53;;;28.30;60.90;;;;;;5107382;27;20202;-67
2022/08/24 08:06:19;;;;;;;5.67;1.63;;;28.40;60.10;;;;;;5106954;27;20519;-67
2022/08/24 08:08:49;;;;;;;3.70;1.40;;;28.60;59.80;;;;;;5102885;27;20240;-67
2022/08/24 08:11:16;;;;;;;3.53;1.30;;;28.70;58.70;;;;;;5100080;28;20203;-67
2022/08/24 08:13:45;;;;;;;1.73;1.10;;;28.70;59.00;;;;;;5100161;27;20201;-67
2022/08/24 08:16:12;;;;;;;2.57;1.40;;;28.80;58.30;;;;;;5082582;27;20207;-67
2022/08/24 08:18:40;;;;;;;5.03;1.37;;;28.90;58.80;;;;;;5093582;28;20320;-67
2022/08/24 08:24:13;;;;;;;5.87;1.30;;;29.10;57.70;;;;;;5093704;28;20193;-69
2022/08/24 08:24:15;;;;;;;1.60;1.10;;;29.10;58.30;;;;;;5118553;27;20201;-70
2022/08/24 08:26:50;;;;;;;2.53;1.20;;;29.20;57.80;;;;;;5100979;28;20209;-69
2022/08/24 08:29:34;;;;;;;3.87;1.00;;;29.40;57.80;;;;;;5105088;28;20206;-71
2022/08/24 08:32:02;;;;;;;3.53;1.30;;;29.60;58.00;;;;;;5104687;28;20200;-70
2022/08/24 08:34:30;;;;;;;2.07;1.47;;;29.80;56.90;;;;;;5101792;28;20292;-70
2022/08/24 08:36:58;;;;;;;1.63;1.10;;;29.90;55.10;;;;;;5111151;27;20241;-69
2022/08/24 08:39:26;;;;;;;1.73;1.30;;;30.00;55.40;;;;;;5096144;28;20663;-69
2022/08/24 08:42:13;;;;;;;1.33;0.80;;;30.00;56.00;;;;;;5100814;28;20673;-70
2022/08/24 08:45:13;;;;;;;2.30;1.43;;;30.20;56.60;;;;;;5116918;27;20205;-70
2022/08/24 08:48:11;;;;;;;1.13;1.03;;;30.30;55.00;;;;;;5057685;28;20208;-70
2022/08/24 08:51:09;;;;;;;1.50;1.00;;;30.40;54.70;;;;;;5097710;28;20201;-70
2022/08/24 08:54:03;;;;;;;7.10;1.60;;;30.50;55.20;;;;;;5110286;27;20519;-70
2022/08/24 08:56:58;;;;;;;1.57;1.07;;;30.70;54.50;;;;;;5095761;28;20300;-70
2022/08/24 09:00:06;;;;;;;2.33;1.00;;;30.80;53.00;;;;;;5082870;28;20228;-71
2022/08/24 09:02:58;;;;;;;1.80;1.10;;;30.80;53.20;;;;;;5089193;28;20202;-70
2022/08/24 09:05:57;;;;;;;1.00;0.60;;;30.80;53.70;;;;;;5101389;28;20289;-69
2022/08/24 09:08:56;;;;;;;2.60;0.77;;;31.00;52.60;;;;;;5103490;28;20532;-69
2022/08/24 09:11:32;;;;;;;0.70;0.60;;;31.20;50.90;;;;;;5099888;28;20210;-70
2022/08/24 09:14:30;;;;;;;2.10;1.07;;;31.30;50.30;;;;;;5088499;28;20216;-70
2022/08/24 09:17:12;;;;;;;3.37;0.60;;;31.40;50.00;;;;;;5111838;27;20602;-70
2022/08/24 09:20:12;;;;;;;1.07;0.77;;;31.50;48.90;;;;;;5092000;28;20690;-70
2022/08/24 09:22:48;;;;;;;3.60;0.90;;;31.50;49.20;;;;;;5094545;28;20209;-70
2022/08/24 09:25:30;;;;;;;3.10;1.00;;;31.60;50.10;;;;;;5093469;27;20204;-70
2022/08/24 09:28:40;;;;;;;4.17;1.07;;;31.70;49.30;;;;;;5102882;28;20258;-69
2022/08/24 09:31:22;;;;;;;1.80;1.10;;;31.80;50.00;;;;;;5084477;28;20201;-70
2022/08/24 09:34:20;;;;;;;2.67;1.00;;;32.00;49.80;;;;;;5118660;27;20214;-70
2022/08/24 09:37:18;;;;;;;4.43;0.90;;;32.20;48.50;;;;;;5122498;27;20653;-70
2022/08/24 09:40:18;;;;;;;1.07;0.97;;;32.10;45.60;;;;;;5117108;27;20239;-70
2022/08/24 09:43:03;;;;;;;1.40;1.10;;;31.90;46.60;;;;;;5120060;27;20194;-70
2022/08/24 09:45:52;;;;;;;1.40;0.73;;;31.90;47.60;;;;;;5112350;27;20205;-70
2022/08/24 09:48:49;;;;;;;2.50;0.83;;;31.90;49.00;;;;;;5105134;27;20241;-70
2022/08/24 09:51:48;;;;;;;2.20;1.10;;;32.00;48.50;;;;;;5107652;27;20192;-69
2022/08/24 09:54:17;;;;;;;1.90;1.00;;;31.80;48.60;;;;;;5118624;27;20561;-69
2022/08/24 09:57:02;;;;;;;2.80;0.83;;;31.60;48.70;;;;;;5125033;27;20200;-71
2022/08/24 10:00:08;;;;;;;2.07;0.80;;;31.60;49.70;;;;;;5105286;28;20220;-70
2022/08/24 10:02:51;;;;;;;2.27;0.90;;;31.60;48.80;;;;;;5115701;27;20184;-70
2022/08/24 10:05:27;;;;;;;2.17;1.20;;;31.60;48.80;;;;;;5102452;28;20192;-70
2022/08/24 10:08:17;;;;;;;1.00;0.83;;;31.60;47.60;;;;;;5111266;27;20205;-69
2022/08/24 10:11:13;;;;;;;1.00;0.70;;;31.40;47.10;;;;;;5110369;27;20199;-70
2022/08/24 10:13:58;;;;;;;3.47;0.87;;;31.00;47.70;;;;;;5074947;27;20212;-69
2022/08/24 10:16:31;;;;;;;1.57;1.10;;;30.70;49.20;;;;;;5115021;27;20200;-69
2022/08/24 10:19:34;;;;;;;2.53;1.13;;;30.50;49.60;;;;;;5110237;27;20228;-69
2022/08/24 10:22:21;;;;;;;2.47;1.00;;;30.40;50.50;;;;;;5095180;27;20214;-70
2022/08/24 10:25:04;;;;;;;4.00;0.90;;;30.60;51.40;;;;;;5114550;27;20203;-71
2022/08/24 10:27:40;;;;;;;1.37;1.03;;;30.90;50.20;;;;;;5105889;27;20228;-70
2022/08/24 10:30:32;;;;;;;0.97;0.80;;;31.20;48.10;;;;;;5112240;27;20188;-69
2022/08/24 10:33:20;;;;;;;2.43;0.70;;;31.50;47.90;;;;;;5102190;28;20638;-70
2022/08/24 10:36:10;;;;;;;0.80;0.80;;;31.80;48.40;;;;;;5122476;27;20196;-69
2022/08/24 10:45:39;;;;;;;1.00;1.00;;;32.40;45.10;;;;;;5113959;27;20204;-69
2022/08/24 10:48:12;;;;;;;1.20;0.87;;;32.10;46.00;;;;;;5109857;28;20210;-69
2022/08/24 10:50:45;;;;;;;1.33;0.90;;;31.90;45.40;;;;;;5111342;27;20646;-69
2022/08/24 10:53:26;;;;;;;2.73;1.10;;;31.60;46.30;;;;;;5111612;28;20208;-69
2022/08/24 10:56:14;;;;;;;3.77;1.00;;;31.30;47.10;;;;;;5083722;28;20215;-70
2022/08/24 10:58:44;;;;;;;0.80;0.80;;;31.20;48.30;;;;;;5113727;27;20247;-69
2022/08/24 11:01:31;;;;;;;2.97;1.00;;;31.20;48.30;;;;;;5099959;28;20245;-70
2022/08/24 11:04:03;;;;;;;0.73;0.73;;;31.40;47.80;;;;;;5115596;28;20282;-69
2022/08/24 11:06:40;;;;;;;2.60;1.07;;;31.70;47.60;;;;;;5116205;28;20197;-70
2022/08/24 11:09:15;;;;;;;1.23;1.00;;;31.90;47.20;;;;;;5111400;28;20378;-69
2022/08/24 11:11:48;;;;;;;2.20;1.10;;;32.10;46.70;;;;;;5099278;28;20520;-70
2022/08/24 11:14:15;;;;;;;2.07;0.87;;;32.30;46.30;;;;;;5115258;28;20646;-70
2022/08/24 11:16:45;;;;;;;0.67;0.67;;;32.50;45.90;;;;;;5108339;28;20682;-70
2022/08/24 11:19:28;;;;;;;2.77;0.70;;;32.70;44.60;;;;;;5100356;28;20673;-70
2022/08/24 11:22:00;;;;;;;0.83;0.70;;;32.80;45.20;;;;;;5078275;28;20220;-70
2022/08/24 11:24:42;;;;;;;2.40;1.00;;;32.90;44.70;;;;;;5105337;27;20188;-69
2022/08/24 11:27:23;;;;;;;0.97;0.80;;;32.90;42.30;;;;;;5121442;27;20519;-69
2022/08/24 11:29:50;;;;;;;3.97;0.80;;;32.90;43.90;;;;;;5118641;27;20993;-69
2022/08/24 11:32:31;;;;;;;5.77;1.20;;;32.90;44.10;;;;;;5116213;27;20292;-69
2022/08/24 11:35:03;;;;;;;2.20;0.90;;;33.10;44.40;;;;;;5106877;27;20239;-69
2022/08/24 11:37:36;;;;;;;1.33;0.80;;;33.20;44.20;;;;;;5123088;27;20205;-70
2022/08/24 11:40:05;;;;;;;2.73;0.83;;;33.20;43.20;;;;;;5108807;27;20232;-69
2022/08/24 11:42:51;;;;;;;2.10;0.90;;;33.20;42.70;;;;;;5116011;27;20213;-69
2022/08/24 11:45:39;;;;;;;1.97;1.00;;;33.10;43.50;;;;;;5124504;27;20531;-69
2022/08/24 11:48:56;;;;;;;0.77;0.60;;;33.10;43.10;;;;;;5122571;27;20207;-70
2022/08/24 11:51:47;;;;;;;0.93;0.80;;;33.00;43.00;;;;;;5036717;28;20633;-69
2022/08/24 11:54:26;;;;;;;1.03;0.80;;;33.00;43.40;;;;;;5112307;27;20189;-69
2022/08/24 11:57:17;;;;;;;0.80;0.80;;;33.10;44.20;;;;;;5094888;27;20215;-69
2022/08/24 12:00:19;;;;;;;1.67;0.70;;;33.10;44.60;;;;;;5115978;27;20239;-70
2022/08/24 12:03:22;;;;;;;5.30;0.70;;;33.10;42.90;;;;;;5102031;27;20556;-69
2022/08/24 12:05:53;;;;;;;1.23;0.80;;;33.10;43.30;;;;;;5117816;27;20201;-69
2022/08/24 12:08:38;;;;;;;2.73;1.00;;;33.10;43.40;;;;;;5115342;27;20220;-69
2022/08/24 12:11:05;;;;;;;0.70;0.70;;;33.10;42.90;;;;;;5125187;27;20625;-69
2022/08/24 12:13:44;;;;;;;2.07;0.90;;;33.20;42.90;;;;;;5101611;27;20211;-69
2022/08/24 12:16:17;;;;;;;0.90;0.80;;;33.20;43.30;;;;;;5114723;27;20196;-69
2022/08/24 12:19:06;;;;;;;0.90;0.90;;;33.30;43.30;;;;;;5113979;27;20233;-70
2022/08/24 12:21:37;;;;;;;2.20;0.70;;;33.40;42.40;;;;;;5109913;27;21171;-70
2022/08/24 12:24:15;;;;;;;0.77;0.77;;;33.40;42.60;;;;;;5113046;27;20211;-70
2022/08/24 12:26:45;;;;;;;2.00;0.90;;;33.30;41.50;;;;;;5121380;27;20804;-70
2022/08/24 12:29:20;;;;;;;0.80;0.80;;;33.30;42.20;;;;;;5125118;27;20200;-70
2022/08/24 12:31:56;;;;;;;0.90;0.80;;;33.30;41.60;;;;;;5076962;27;20208;-70
2022/08/24 12:34:50;;;;;;;3.43;1.00;;;33.40;42.10;;;;;;5087563;28;20540;-69
2022/08/24 12:37:31;;;;;;;1.77;0.90;;;33.40;40.80;;;;;;5116164;27;20638;-70
2022/08/24 12:40:33;;;;;;;2.83;0.80;;;33.20;41.60;;;;;;5091479;27;20225;-69
2022/08/24 12:43:18;;;;;;;2.67;0.90;;;33.10;42.10;;;;;;5097590;27;20195;-70
2022/08/24 12:45:46;;;;;;;1.03;0.80;;;33.00;41.10;;;;;;5116577;27;20208;-70
2022/08/24 12:48:19;;;;;;;2.23;0.90;;;32.90;40.60;;;;;;5124026;27;20205;-69
2022/08/24 12:51:01;;;;;;;0.80;0.60;;;32.90;41.60;;;;;;5117642;27;20251;-69
2022/08/24 12:53:46;;;;;;;0.90;0.80;;;32.90;42.10;;;;;;5122322;27;20200;-70
2022/08/24 12:56:49;;;;;;;4.40;1.10;;;32.90;41.60;;;;;;5113713;27;20626;-70
2022/08/24 12:59:24;;;;;;;0.80;0.80;;;33.00;42.70;;;;;;5085163;27;20236;-69
2022/08/24 13:02:03;;;;;;;0.97;0.70;;;33.10;41.60;;;;;;5112643;27;20274;-69
2022/08/24 13:04:39;;;;;;;2.83;0.87;;;33.10;41.50;;;;;;5110932;27;20211;-69
2022/08/24 13:07:18;;;;;;;1.77;1.07;;;33.20;41.10;;;;;;5103676;27;20195;-69
2022/08/24 13:09:56;;;;;;;1.03;0.90;;;33.30;41.30;;;;;;5098318;28;20219;-69
2022/08/24 13:12:32;;;;;;;0.80;0.80;;;33.30;40.30;;;;;;5096777;27;20291;-70
2022/08/24 13:15:22;;;;;;;2.70;0.80;;;33.30;41.10;;;;;;5108189;27;20303;-69
2022/08/24 13:17:53;;;;;;;1.33;1.00;;;33.20;40.40;;;;;;5073211;27;20724;-69
2022/08/24 13:20:37;;;;;;;1.37;0.90;;;32.90;41.00;;;;;;5116566;27;20641;-69
2022/08/24 13:23:10;;;;;;;2.07;1.00;;;32.70;42.30;;;;;;5111138;27;20227;-69
2022/08/24 13:25:46;;;;;;;0.90;0.90;;;32.60;42.40;;;;;;5107107;27;20204;-69
2022/08/24 13:28:19;;;;;;;3.17;1.07;;;32.60;42.40;;;;;;5114232;27;20200;-69
2022/08/24 13:30:55;;;;;;;1.90;0.60;;;32.70;42.40;;;;;;5118358;27;20646;-69
2022/08/24 13:33:52;;;;;;;3.17;0.93;;;32.80;42.00;;;;;;5100572;27;20192;-69
2022/08/24 13:36:44;;;;;;;3.87;1.00;;;32.80;42.40;;;;;;5088213;27;20189;-69
2022/08/24 13:39:14;;;;;;;1.40;0.80;;;32.80;42.10;;;;;;5116508;27;20213;-69